Time;durP1;ratioP1;P1;durP2;ratioP2;P2;SDS_P1;SDS_P2;PMS_P1;PMS_P2;Temp;Humidity;BMP_temperature;BMP_pressure;BME280_temperature;BME280_humidity;BME280_pressure;Samples;Min_cycle;Max_cycle;Signal;HPM_P1;HPM_P2
2023/09/14 00:00:43;;;;;;;;;18.33;15.33;;;;;19.17;100.00;101936.94;5128456;27;47127;-75
2023/09/14 00:03:08;;;;;;;;;16.00;16.00;;;;;19.09;100.00;101923.19;5129886;27;45180;-75
2023/09/14 00:05:41;;;;;;;;;17.00;17.00;;;;;19.03;100.00;101926.28;5132664;27;44732;-76
2023/09/14 00:08:06;;;;;;;;;13.33;13.33;;;;;19.04;100.00;101919.09;5121539;27;45396;-75
2023/09/14 00:10:32;;;;;;;;;18.33;18.33;;;;;19.08;100.00;101926.81;5122714;27;45690;-75
2023/09/14 00:12:58;;;;;;;;;20.33;17.67;;;;;19.06;100.00;101925.22;5127422;27;45337;-75
2023/09/14 00:15:24;;;;;;;;;18.33;16.67;;;;;19.00;100.00;101923.78;5116981;27;45301;-75
2023/09/14 00:17:49;;;;;;;;;19.00;18.00;;;;;18.94;100.00;101926.00;5117616;27;44763;-75
2023/09/14 00:20:20;;;;;;;;;18.00;15.67;;;;;18.89;100.00;101912.88;5114721;27;45378;-75
2023/09/14 00:22:46;;;;;;;;;14.67;14.33;;;;;18.89;100.00;101934.34;5113273;27;45001;-75
2023/09/14 00:25:11;;;;;;;;;18.33;16.67;;;;;18.84;100.00;101931.09;5112148;27;45303;-75
2023/09/14 00:27:37;;;;;;;;;15.00;15.00;;;;;18.85;100.00;101927.44;5119825;27;45255;-75
2023/09/14 00:30:02;;;;;;;;;14.67;14.67;;;;;18.82;100.00;101926.78;5127882;27;45312;-76
2023/09/14 00:32:28;;;;;;;;;18.00;16.67;;;;;18.80;100.00;101934.94;5120156;27;45196;-75
2023/09/14 00:34:53;;;;;;;;;15.67;14.00;;;;;18.76;100.00;101928.03;5110905;27;45318;-75
2023/09/14 00:37:18;;;;;;;;;17.67;15.00;;;;;18.77;100.00;101939.63;5117306;27;45662;-75
2023/09/14 00:39:44;;;;;;;;;16.00;15.00;;;;;18.75;100.00;101931.66;5131468;27;45296;-75
2023/09/14 00:42:09;;;;;;;;;17.00;12.67;;;;;18.75;100.00;101930.81;5122808;27;51521;-75
2023/09/14 00:44:34;;;;;;;;;22.33;19.33;;;;;18.74;100.00;101935.31;5117883;27;45296;-75
2023/09/14 00:47:00;;;;;;;;;18.67;17.67;;;;;18.68;100.00;101922.31;5122039;27;49138;-75
2023/09/14 00:49:25;;;;;;;;;20.33;19.00;;;;;18.71;100.00;101933.69;5113298;27;45376;-75
2023/09/14 00:51:51;;;;;;;;;19.33;16.67;;;;;18.69;100.00;101940.97;5123383;27;47135;-75
2023/09/14 00:54:17;;;;;;;;;20.33;17.33;;;;;18.74;100.00;101938.00;5129096;27;44775;-75
2023/09/14 00:56:42;;;;;;;;;21.00;18.67;;;;;18.69;100.00;101937.41;5135669;27;44825;-74
2023/09/14 00:59:08;;;;;;;;;20.33;20.33;;;;;18.72;100.00;101942.56;5116569;27;45346;-75
2023/09/14 01:01:34;;;;;;;;;29.00;25.00;;;;;18.67;100.00;101934.84;5113751;27;45429;-75
2023/09/14 01:04:00;;;;;;;;;26.00;23.33;;;;;18.71;100.00;101940.88;5130003;27;44752;-75
2023/09/14 01:06:25;;;;;;;;;23.00;22.33;;;;;18.54;100.00;101907.09;5119753;27;45286;-75
2023/09/14 01:08:54;;;;;;;;;22.00;19.33;;;;;18.68;100.00;101935.72;5119565;27;44808;-75
2023/09/14 01:11:19;;;;;;;;;23.00;20.67;;;;;18.57;100.00;101924.78;5124172;27;45620;-75
2023/09/14 01:14:00;;;;;;;;;19.67;18.33;;;;;18.66;100.00;101937.59;5130289;27;45316;-74
2023/09/14 01:16:37;;;;;;;;;18.67;18.67;;;;;18.64;100.00;101940.41;5130656;27;45350;-75
2023/09/14 01:19:19;;;;;;;;;20.33;18.00;;;;;18.61;100.00;101942.41;5118662;27;45390;-75
2023/09/14 01:22:02;;;;;;;;;20.67;20.33;;;;;18.55;100.00;101938.28;5115816;27;47930;-75
2023/09/14 01:24:57;;;;;;;;;21.00;18.33;;;;;18.52;100.00;101937.63;5119120;27;45383;-75
2023/09/14 01:27:23;;;;;;;;;20.67;20.67;;;;;18.45;100.00;101936.25;5122773;27;44799;-75
2023/09/14 01:29:48;;;;;;;;;23.67;19.33;;;;;18.47;100.00;101937.00;5145003;27;45447;-75
2023/09/14 01:32:14;;;;;;;;;18.67;17.67;;;;;18.42;100.00;101933.75;5120181;27;45507;-75
2023/09/14 01:34:40;;;;;;;;;18.67;16.67;;;;;18.37;100.00;101923.31;5112359;27;45275;-75
2023/09/14 01:37:06;;;;;;;;;17.33;17.33;;;;;18.39;100.00;101942.81;5122808;27;45659;-73
2023/09/14 01:39:33;;;;;;;;;17.67;17.67;;;;;18.41;100.00;101950.78;5123599;27;45331;-73
2023/09/14 01:41:59;;;;;;;;;19.67;18.33;;;;;18.38;100.00;101938.44;5116260;27;45159;-73
2023/09/14 01:44:26;;;;;;;;;21.00;18.33;;;;;18.39;100.00;101934.78;5120680;27;45316;-73
2023/09/14 01:46:52;;;;;;;;;18.67;17.33;;;;;18.34;100.00;101933.34;5113407;27;45365;-73
2023/09/14 01:49:18;;;;;;;;;18.33;16.67;;;;;18.36;100.00;101947.50;5122007;27;45993;-74
2023/09/14 01:51:43;;;;;;;;;21.00;18.67;;;;;18.35;100.00;101959.19;5118362;27;45512;-75
2023/09/14 01:54:08;;;;;;;;;18.33;18.00;;;;;18.29;100.00;101946.19;5110558;27;45315;-74
2023/09/14 01:56:34;;;;;;;;;15.33;13.67;;;;;18.20;100.00;101928.84;5123758;27;45414;-74
2023/09/14 01:58:59;;;;;;;;;18.00;14.33;;;;;18.28;100.00;101944.44;5120766;27;45346;-74
2023/09/14 02:01:24;;;;;;;;;17.67;15.67;;;;;18.19;100.00;101935.19;5118952;27;45424;-75
2023/09/14 02:03:50;;;;;;;;;17.00;15.33;;;;;18.16;100.00;101928.16;5121667;27;45297;-75
2023/09/14 02:06:15;;;;;;;;;21.33;17.00;;;;;18.22;100.00;101938.50;5128930;27;45227;-75
2023/09/14 02:08:40;;;;;;;;;16.67;16.00;;;;;18.19;100.00;101938.69;5117639;27;45862;-74
2023/09/14 02:11:06;;;;;;;;;15.33;15.33;;;;;18.09;100.00;101921.47;5123756;27;45399;-74
2023/09/14 02:13:31;;;;;;;;;24.67;19.67;;;;;18.15;100.00;101936.31;5122548;27;46500;-75
2023/09/14 02:15:57;;;;;;;;;17.67;16.67;;;;;17.99;100.00;101917.63;5123555;27;46316;-74
2023/09/14 02:18:22;;;;;;;;;17.33;17.33;;;;;18.06;100.00;101932.34;5120231;27;44905;-75
2023/09/14 02:20:47;;;;;;;;;14.33;13.67;;;;;18.07;100.00;101939.44;5119144;27;45374;-75
2023/09/14 02:23:15;;;;;;;;;16.00;14.00;;;;;18.05;100.00;101938.69;5123391;27;45302;-74
2023/09/14 02:25:42;;;;;;;;;15.67;15.67;;;;;18.03;100.00;101948.59;5114719;27;45584;-76
2023/09/14 02:28:07;;;;;;;;;17.00;16.33;;;;;17.97;100.00;101929.38;5116848;27;45284;-75
2023/09/14 02:30:37;;;;;;;;;19.00;12.67;;;;;17.97;100.00;101943.63;5115919;27;47575;-75
2023/09/14 02:33:03;;;;;;;;;17.67;16.67;;;;;17.89;100.00;101920.94;5131466;27;45534;-74
2023/09/14 02:35:28;;;;;;;;;16.00;15.00;;;;;17.93;100.00;101936.72;5132330;27;45507;-75
2023/09/14 02:37:54;;;;;;;;;16.33;16.33;;;;;17.85;100.00;101922.09;5124782;27;45349;-75
2023/09/14 02:40:19;;;;;;;;;15.67;13.33;;;;;17.87;100.00;101934.41;5109674;27;45209;-75
2023/09/14 02:42:44;;;;;;;;;19.67;18.67;;;;;17.85;100.00;101928.31;5113505;27;58506;-75
2023/09/14 02:45:10;;;;;;;;;16.67;15.00;;;;;17.79;100.00;101912.59;5118176;27;48104;-75
2023/09/14 02:47:35;;;;;;;;;18.67;17.33;;;;;17.73;100.00;101922.81;5112209;27;45271;-75
2023/09/14 02:50:00;;;;;;;;;18.33;14.67;;;;;17.77;100.00;101919.00;5112054;27;47137;-74
2023/09/14 02:52:26;;;;;;;;;13.33;13.33;;;;;17.67;100.00;101913.31;5128260;27;45374;-75
2023/09/14 02:54:51;;;;;;;;;19.67;17.00;;;;;17.72;100.00;101916.59;5123475;27;45445;-74
2023/09/14 02:57:16;;;;;;;;;23.33;18.67;;;;;17.63;100.00;101910.00;5129214;27;45745;-74
2023/09/14 02:59:41;;;;;;;;;19.00;18.33;;;;;17.62;100.00;101915.41;5124274;27;45536;-75
2023/09/14 03:02:07;;;;;;;;;20.33;18.00;;;;;17.64;100.00;101930.41;5114924;27;45353;-74
2023/09/14 03:04:33;;;;;;;;;15.00;13.67;;;;;17.57;100.00;101910.31;5123216;27;45324;-74
2023/09/14 03:06:58;;;;;;;;;18.33;16.67;;;;;17.58;100.00;101917.41;5114932;27;45228;-75
2023/09/14 03:09:23;;;;;;;;;15.67;14.33;;;;;17.57;100.00;101923.69;5131964;27;47069;-74
2023/09/14 03:11:49;;;;;;;;;21.67;17.67;;;;;17.51;100.00;101917.81;5110456;27;47106;-76
2023/09/14 03:14:14;;;;;;;;;16.67;16.67;;;;;17.49;100.00;101917.91;5118726;27;45546;-75
2023/09/14 03:16:39;;;;;;;;;14.33;12.67;;;;;17.48;100.00;101923.34;5119129;27;45382;-75
2023/09/14 03:19:05;;;;;;;;;19.33;17.00;;;;;17.40;100.00;101912.25;5121409;27;50341;-75
2023/09/14 03:21:30;;;;;;;;;12.00;12.00;;;;;17.41;100.00;101921.97;5123362;27;45226;-75
2023/09/14 03:23:56;;;;;;;;;13.67;13.33;;;;;17.40;100.00;101923.81;5127206;27;45308;-75
2023/09/14 03:26:23;;;;;;;;;14.67;14.67;;;;;17.36;100.00;101919.56;5116210;27;45390;-75
2023/09/14 03:28:50;;;;;;;;;14.00;14.00;;;;;17.32;100.00;101915.34;5117426;27;45350;-75
2023/09/14 03:31:16;;;;;;;;;16.00;13.67;;;;;17.32;100.00;101907.31;5116621;27;45358;-75
2023/09/14 03:33:43;;;;;;;;;14.33;14.33;;;;;17.27;100.00;101911.22;5117341;27;45273;-75
2023/09/14 03:36:08;;;;;;;;;11.00;11.00;;;;;17.26;100.00;101904.13;5109845;27;45487;-74
2023/09/14 03:38:33;;;;;;;;;16.00;13.00;;;;;17.26;100.00;101905.00;5122729;27;48162;-74
2023/09/14 03:40:59;;;;;;;;;17.00;14.67;;;;;17.24;100.00;101900.72;5118954;27;45295;-74
2023/09/14 03:43:24;;;;;;;;;15.00;13.00;;;;;17.19;100.00;101900.97;5109746;27;45393;-74
2023/09/14 03:45:50;;;;;;;;;12.00;12.00;;;;;17.14;100.00;101897.69;5106195;27;46302;-74
2023/09/14 03:48:15;;;;;;;;;15.67;14.67;;;;;17.17;100.00;101902.88;5104837;27;47042;-74
2023/09/14 03:50:41;;;;;;;;;13.33;13.33;;;;;17.14;100.00;101903.03;5114469;27;45300;-75
2023/09/14 03:53:08;;;;;;;;;13.00;12.00;;;;;17.04;100.00;101886.66;5103502;27;45245;-75
2023/09/14 03:55:33;;;;;;;;;18.00;14.00;;;;;17.08;100.00;101904.22;5116186;27;45248;-74
2023/09/14 03:57:58;;;;;;;;;11.33;11.33;;;;;17.03;100.00;101897.44;5105123;27;45464;-75
2023/09/14 04:00:24;;;;;;;;;15.33;12.00;;;;;17.06;100.00;101900.78;5108970;27;45526;-74
2023/09/14 04:02:49;;;;;;;;;15.00;13.67;;;;;17.03;100.00;101900.97;5107141;27;45497;-74
2023/09/14 04:05:17;;;;;;;;;12.67;12.67;;;;;16.92;100.00;101891.81;5122190;27;45454;-75
2023/09/14 04:07:46;;;;;;;;;16.00;13.67;;;;;16.97;100.00;101898.66;5119311;27;45472;-74
2023/09/14 04:10:12;;;;;;;;;14.33;14.00;;;;;16.87;100.00;101877.88;5115710;27;45232;-75
2023/09/14 04:12:39;;;;;;;;;14.33;13.67;;;;;16.95;100.00;101900.53;5108671;27;45315;-74
2023/09/14 04:15:05;;;;;;;;;19.33;14.00;;;;;16.95;100.00;101897.03;5113482;27;45240;-75
2023/09/14 04:17:31;;;;;;;;;16.33;14.33;;;;;16.92;100.00;101900.69;5095622;27;45576;-74
2023/09/14 04:19:56;;;;;;;;;14.33;14.00;;;;;16.86;100.00;101893.03;5104534;27;45355;-74
2023/09/14 04:22:21;;;;;;;;;14.00;14.00;;;;;16.89;100.00;101892.00;5103462;27;45550;-75
2023/09/14 04:24:46;;;;;;;;;13.33;12.67;;;;;16.87;100.00;101896.56;5118715;27;45564;-74
2023/09/14 04:27:12;;;;;;;;;12.00;12.00;;;;;16.77;100.00;101885.53;5107250;27;45441;-74
2023/09/14 04:29:37;;;;;;;;;16.00;12.67;;;;;16.84;100.00;101897.63;5112048;27;45444;-74
2023/09/14 04:32:03;;;;;;;;;14.33;14.33;;;;;16.77;100.00;101890.88;5112618;27;49726;-74
2023/09/14 04:34:28;;;;;;;;;14.33;12.67;;;;;16.67;100.00;101884.31;5112275;27;45423;-74
2023/09/14 04:36:54;;;;;;;;;15.33;15.33;;;;;16.76;100.00;101893.63;5111772;27;45428;-74
2023/09/14 04:39:19;;;;;;;;;14.67;14.67;;;;;16.75;100.00;101895.47;5099862;27;45340;-74
2023/09/14 04:41:44;;;;;;;;;16.33;13.67;;;;;16.65;100.00;101880.88;5110037;27;47379;-74
2023/09/14 04:44:10;;;;;;;;;17.67;16.67;;;;;16.71;100.00;101896.56;5103893;27;45257;-74
2023/09/14 04:46:36;;;;;;;;;20.00;17.00;;;;;16.60;100.00;101883.78;5104791;27;45304;-75
2023/09/14 04:49:01;;;;;;;;;19.00;15.67;;;;;16.70;100.00;101908.19;5105534;27;45484;-75
2023/09/14 04:51:27;;;;;;;;;12.00;12.00;;;;;16.65;100.00;101900.41;5106299;27;45455;-75
2023/09/14 04:53:52;;;;;;;;;19.33;16.67;;;;;16.66;100.00;101909.28;5109302;27;45431;-75
2023/09/14 04:56:19;;;;;;;;;17.33;16.00;;;;;16.60;100.00;101893.63;5113668;27;46137;-75
2023/09/14 04:58:44;;;;;;;;;16.67;16.67;;;;;16.65;100.00;101913.78;5119969;27;45366;-75
2023/09/14 05:01:10;;;;;;;;;16.33;16.33;;;;;16.52;100.00;101891.31;5121940;27;45610;-75
2023/09/14 05:03:35;;;;;;;;;18.00;17.33;;;;;16.61;100.00;101914.91;5114123;27;46128;-75
2023/09/14 05:06:02;;;;;;;;;20.00;19.67;;;;;16.62;100.00;101910.44;5126231;27;45920;-74
2023/09/14 05:08:28;;;;;;;;;15.00;15.00;;;;;16.62;100.00;101916.63;5122012;27;45262;-75
2023/09/14 05:10:53;;;;;;;;;16.67;16.67;;;;;16.62;100.00;101921.97;5108164;27;45454;-75
2023/09/14 05:13:20;;;;;;;;;21.00;21.00;;;;;16.66;100.00;101928.00;5112313;27;45495;-75
2023/09/14 05:15:46;;;;;;;;;19.67;19.67;;;;;16.65;100.00;101931.63;5110367;27;45407;-75
2023/09/14 05:18:12;;;;;;;;;21.33;18.67;;;;;16.66;100.00;101930.66;5121885;27;45413;-76
2023/09/14 05:20:45;;;;;;;;;16.33;16.33;;;;;16.56;100.00;101913.41;5123331;27;45242;-75
2023/09/14 05:23:10;;;;;;;;;19.67;18.00;;;;;16.62;100.00;101916.63;5116656;27;45408;-75
2023/09/14 05:25:36;;;;;;;;;23.00;17.67;;;;;16.67;100.00;101929.72;5114286;27;45694;-75
2023/09/14 05:28:01;;;;;;;;;19.33;17.33;;;;;16.67;100.00;101927.94;5114605;27;45409;-75
2023/09/14 05:30:27;;;;;;;;;17.33;16.33;;;;;16.67;100.00;101930.59;5123497;27;45449;-75
2023/09/14 05:32:52;;;;;;;;;13.00;12.33;;;;;16.67;100.00;101925.25;5116040;27;45607;-75
2023/09/14 05:35:18;;;;;;;;;13.67;13.67;;;;;16.59;100.00;101926.59;5119876;27;46153;-74
2023/09/14 05:37:44;;;;;;;;;17.67;16.00;;;;;16.63;100.00;101922.81;5128744;27;45511;-76
2023/09/14 05:40:10;;;;;;;;;25.67;21.33;;;;;16.68;100.00;101931.47;5114240;27;45420;-75
2023/09/14 05:42:37;;;;;;;;;16.67;15.33;;;;;16.70;100.00;101934.91;5113169;27;45387;-75
2023/09/14 05:45:04;;;;;;;;;17.00;15.33;;;;;16.60;100.00;101913.19;5109807;27;47067;-74
2023/09/14 05:47:29;;;;;;;;;19.00;17.00;;;;;16.73;100.00;101936.53;5124493;27;45368;-75
2023/09/14 05:49:54;;;;;;;;;21.33;17.67;;;;;16.72;100.00;101927.66;5117140;27;44852;-76
2023/09/14 05:52:20;;;;;;;;;19.00;16.00;;;;;16.62;100.00;101913.94;5115887;27;44777;-75
2023/09/14 05:54:45;;;;;;;;;21.33;17.00;;;;;16.67;100.00;101922.59;5122983;27;58484;-75
2023/09/14 05:57:10;;;;;;;;;16.00;14.33;;;;;16.68;100.00;101939.47;5122067;27;45296;-75
2023/09/14 05:59:36;;;;;;;;;17.00;16.00;;;;;16.76;100.00;101950.59;5118294;27;45102;-75
2023/09/14 06:02:01;;;;;;;;;24.33;18.00;;;;;16.75;100.00;101943.56;5113750;27;45738;-75
2023/09/14 06:04:27;;;;;;;;;19.00;16.00;;;;;16.77;100.00;101952.34;5118263;27;45556;-76
2023/09/14 06:06:52;;;;;;;;;19.67;17.67;;;;;16.75;100.00;101937.34;5117975;27;45200;-75
2023/09/14 06:09:17;;;;;;;;;15.67;15.67;;;;;16.85;100.00;101950.09;5113500;27;45620;-75
2023/09/14 06:11:43;;;;;;;;;18.67;16.67;;;;;16.83;100.00;101941.31;5112394;27;45844;-76
2023/09/14 06:14:08;;;;;;;;;17.67;17.67;;;;;16.85;100.00;101939.41;5112577;27;45257;-75
2023/09/14 06:16:33;;;;;;;;;17.00;17.00;;;;;16.87;100.00;101953.56;5117530;27;45520;-76
2023/09/14 06:18:59;;;;;;;;;22.33;18.33;;;;;16.84;100.00;101935.03;5110806;27;45322;-75
2023/09/14 06:21:24;;;;;;;;;17.67;17.67;;;;;16.94;100.00;101952.28;5103638;27;45202;-75
2023/09/14 06:23:50;;;;;;;;;22.67;18.00;;;;;16.91;100.00;101944.44;5101433;27;46285;-75
2023/09/14 06:26:15;;;;;;;;;18.00;18.00;;;;;16.99;100.00;101947.53;5104951;27;45411;-76
2023/09/14 06:28:41;;;;;;;;;22.00;15.67;;;;;16.93;100.00;101941.66;5114068;27;45465;-75
2023/09/14 06:31:06;;;;;;;;;23.33;21.67;;;;;17.01;100.00;101945.66;5107778;27;45337;-75
2023/09/14 06:33:31;;;;;;;;;25.00;19.33;;;;;17.08;100.00;101957.69;5103266;27;45381;-75
2023/09/14 06:35:57;;;;;;;;;21.00;20.00;;;;;17.16;100.00;101966.16;5121462;27;45419;-75
2023/09/14 06:38:22;;;;;;;;;22.33;19.00;;;;;17.18;100.00;101952.69;5118867;27;45401;-76
2023/09/14 06:40:47;;;;;;;;;14.33;14.00;;;;;17.18;100.00;101950.03;5107684;27;45465;-76
2023/09/14 06:43:13;;;;;;;;;24.67;22.33;;;;;17.28;100.00;101956.56;5130756;27;45371;-76
2023/09/14 06:45:39;;;;;;;;;15.33;15.33;;;;;17.27;100.00;101948.66;5133225;27;44648;-75
2023/09/14 06:48:04;;;;;;;;;18.67;17.67;;;;;17.33;100.00;101946.50;5119318;27;44791;-75
2023/09/14 06:50:30;;;;;;;;;25.00;21.00;;;;;17.44;100.00;101967.28;5126517;27;45580;-76
2023/09/14 06:52:56;;;;;;;;;20.00;18.33;;;;;17.37;100.00;101947.19;5125013;27;46943;-75
2023/09/14 06:55:21;;;;;;;;;40.67;36.00;;;;;17.43;100.00;101952.19;5119552;27;45226;-75
2023/09/14 06:57:47;;;;;;;;;23.33;21.00;;;;;17.48;100.00;101950.94;5109693;27;45261;-76
2023/09/14 07:00:16;;;;;;;;;24.33;24.33;;;;;17.63;100.00;101962.63;5121176;27;45412;-76
2023/09/14 07:02:45;;;;;;;;;40.67;33.67;;;;;17.69;100.00;101971.16;5124725;27;45516;-76
2023/09/14 07:05:10;;;;;;;;;27.67;26.33;;;;;17.76;100.00;101981.50;5124267;27;45372;-76
2023/09/14 07:07:40;;;;;;;;;31.33;29.00;;;;;17.81;100.00;101980.28;5120900;27;45329;-75
2023/09/14 07:10:07;;;;;;;;;33.33;30.67;;;;;17.86;100.00;101980.03;5110740;27;45450;-75
2023/09/14 07:12:33;;;;;;;;;36.33;31.00;;;;;17.83;100.00;101972.16;5125716;27;45425;-75
2023/09/14 07:14:58;;;;;;;;;32.00;30.00;;;;;17.86;100.00;101972.84;5124327;27;45251;-76
2023/09/14 07:17:24;;;;;;;;;32.33;31.33;;;;;17.96;100.00;101979.41;5106441;27;45629;-76
2023/09/14 07:19:50;;;;;;;;;29.00;27.67;;;;;17.99;100.00;101976.53;5106271;27;45578;-75
2023/09/14 07:22:15;;;;;;;;;18.33;17.33;;;;;18.10;100.00;101982.09;5123049;27;47645;-75
2023/09/14 07:24:40;;;;;;;;;43.00;36.00;;;;;18.15;100.00;101976.47;5114029;27;45338;-76
2023/09/14 07:27:06;;;;;;;;;29.00;26.00;;;;;18.18;100.00;101968.25;5105990;27;45298;-75
2023/09/14 07:29:31;;;;;;;;;21.33;17.67;;;;;18.17;100.00;101969.19;5107232;27;45201;-76
2023/09/14 07:31:57;;;;;;;;;29.33;28.00;;;;;18.21;100.00;101976.09;5108210;27;45270;-76
2023/09/14 07:34:23;;;;;;;;;30.33;26.33;;;;;18.32;100.00;101984.34;5116907;27;45221;-76
2023/09/14 07:36:49;;;;;;;;;22.00;21.33;;;;;18.32;100.00;101967.41;5127008;27;45380;-76
2023/09/14 07:39:14;;;;;;;;;26.00;26.00;;;;;18.29;100.00;101951.53;5116575;27;45326;-77
2023/09/14 07:41:40;;;;;;;;;26.33;26.33;;;;;18.38;100.00;101967.91;5124259;27;48267;-77
2023/09/14 07:44:05;;;;;;;;;22.67;22.67;;;;;18.50;100.00;101974.34;5127508;27;45233;-76
2023/09/14 07:46:31;;;;;;;;;33.00;31.33;;;;;18.58;100.00;101974.75;5127162;27;45465;-76
2023/09/14 07:48:56;;;;;;;;;30.33;28.67;;;;;18.62;100.00;101973.59;5111843;27;45263;-75
2023/09/14 07:51:22;;;;;;;;;29.33;27.00;;;;;18.71;100.00;101965.00;5114816;27;47740;-76
2023/09/14 07:53:47;;;;;;;;;27.00;24.67;;;;;18.78;100.00;101962.78;5108435;27;45488;-76
2023/09/14 07:56:13;;;;;;;;;30.67;29.33;;;;;18.40;100.00;101908.88;5114152;27;45528;-76
2023/09/14 07:58:38;;;;;;;;;32.50;29.50;;;;;18.85;100.00;101969.50;5115271;27;45357;-76
2023/09/14 08:01:03;;;;;;;;;28.00;27.00;;;;;18.92;100.00;101979.72;5100466;27;46658;-75
2023/09/14 08:03:30;;;;;;;;;27.67;27.67;;;;;18.99;100.00;101972.13;5100134;27;45465;-76
2023/09/14 08:05:55;;;;;;;;;29.33;29.33;;;;;19.06;100.00;101978.84;5116556;27;45531;-75
2023/09/14 08:08:21;;;;;;;;;40.33;33.33;;;;;19.02;100.00;101955.84;5118649;27;45427;-76
2023/09/14 08:10:50;;;;;;;;;35.33;32.00;;;;;19.27;100.00;101987.34;5103617;27;45992;-76
2023/09/14 08:13:16;;;;;;;;;33.00;30.33;;;;;19.39;100.00;101986.53;5101678;27;45395;-76
2023/09/14 08:15:41;;;;;;;;;27.33;24.67;;;;;19.36;100.00;101965.28;5109667;27;45354;-75
2023/09/14 08:18:06;;;;;;;;;27.33;26.00;;;;;19.38;100.00;101971.38;5103732;27;45534;-75
2023/09/14 08:20:37;;;;;;;;;29.33;28.33;;;;;19.40;100.00;101980.22;5120178;27;48475;-76
2023/09/14 08:23:02;;;;;;;;;33.67;30.00;;;;;19.54;100.00;101980.19;5115457;27;45684;-76
2023/09/14 08:25:27;;;;;;;;;26.33;22.00;;;;;19.66;100.00;101992.81;5110104;27;45206;-75
2023/09/14 08:27:53;;;;;;;;;33.33;28.67;;;;;19.55;100.00;101974.72;5114501;27;45295;-75
2023/09/14 08:30:18;;;;;;;;;31.67;29.33;;;;;19.79;100.00;101990.19;5105985;27;46330;-75
2023/09/14 08:32:43;;;;;;;;;28.67;25.33;;;;;19.97;100.00;101996.97;5123293;27;45399;-75
2023/09/14 08:35:23;;;;;;;;;39.00;31.67;;;;;20.08;100.00;101995.31;5122063;27;45675;-76
2023/09/14 08:37:52;;;;;;;;;32.33;31.67;;;;;20.15;100.00;101996.63;5103840;27;45551;-76
2023/09/14 08:40:18;;;;;;;;;36.67;33.33;;;;;20.16;100.00;101976.81;5102305;27;45378;-76
2023/09/14 08:42:54;;;;;;;;;33.67;31.67;;;;;20.43;100.00;101989.34;5115530;27;45311;-75
2023/09/14 08:45:23;;;;;;;;;34.67;30.67;;;;;20.59;100.00;101990.00;5115150;27;45291;-76
2023/09/14 08:47:50;;;;;;;;;38.67;34.33;;;;;20.58;100.00;101966.81;5122019;27;45379;-75
2023/09/14 08:50:17;;;;;;;;;36.33;33.00;;;;;20.69;100.00;101994.63;5121164;27;46211;-75
2023/09/14 08:52:44;;;;;;;;;32.00;31.33;;;;;20.78;100.00;101982.34;5121530;27;45332;-75
2023/09/14 08:55:11;;;;;;;;;39.67;33.33;;;;;20.85;100.00;101986.34;5117341;27;45232;-76
2023/09/14 08:57:41;;;;;;;;;36.33;33.67;;;;;20.95;100.00;101991.91;5112916;27;45335;-75
2023/09/14 09:00:14;;;;;;;;;43.33;33.00;;;;;20.97;100.00;101998.06;5123031;27;46412;-76
2023/09/14 09:02:58;;;;;;;;;41.33;33.33;;;;;20.92;100.00;101984.94;5118709;27;45373;-75
2023/09/14 09:05:25;;;;;;;;;43.67;33.33;;;;;21.07;100.00;101993.75;5112238;27;45468;-76
2023/09/14 09:07:51;;;;;;;;;34.67;32.00;;;;;21.11;100.00;101988.03;5107650;27;45475;-75
2023/09/14 09:10:25;;;;;;;;;37.67;34.00;;;;;21.17;100.00;101995.66;5121447;27;46716;-76
2023/09/14 09:12:54;;;;;;;;;31.67;28.67;;;;;21.15;100.00;101981.47;5117400;27;45341;-76
2023/09/14 09:15:22;;;;;;;;;31.33;30.00;;;;;21.27;100.00;101995.84;5105177;27;45404;-75
2023/09/14 09:17:52;;;;;;;;;29.67;25.67;;;;;21.34;100.00;101993.56;5117913;27;45438;-75
2023/09/14 09:20:22;;;;;;;;;31.33;31.00;;;;;21.45;100.00;101985.59;5112858;27;45426;-76
2023/09/14 09:22:49;;;;;;;;;33.00;30.33;;;;;21.51;100.00;101983.28;5118593;27;45484;-76
2023/09/14 09:25:15;;;;;;;;;35.00;29.00;;;;;21.55;100.00;101981.25;5102828;27;45409;-75
2023/09/14 09:27:40;;;;;;;;;33.00;29.67;;;;;21.69;100.00;101989.16;5102682;27;45370;-75
2023/09/14 09:30:08;;;;;;;;;30.33;28.00;;;;;21.87;100.00;101987.75;5102312;27;45307;-75
2023/09/14 09:32:38;;;;;;;;;36.00;31.67;;;;;22.19;100.00;101986.19;5114982;27;45343;-76
2023/09/14 09:35:20;;;;;;;;;35.00;32.00;;;;;22.43;100.00;101985.25;5102759;27;45410;-75
2023/09/14 09:37:47;;;;;;;;;34.00;31.33;;;;;22.40;95.55;101950.47;5102664;27;45473;-75
2023/09/14 09:40:20;;;;;;;;;33.67;30.67;;;;;22.45;98.33;101964.41;5101675;27;46496;-75
2023/09/14 09:42:48;;;;;;;;;32.33;30.00;;;;;22.65;100.00;101978.06;5101628;27;46198;-75
2023/09/14 09:45:14;;;;;;;;;37.33;32.00;;;;;22.89;97.65;101982.53;5109284;27;45390;-75
2023/09/14 09:47:41;;;;;;;;;35.67;27.67;;;;;23.02;92.14;101983.25;5108788;27;45426;-75
2023/09/14 09:50:12;;;;;;;;;33.67;30.00;;;;;23.09;95.13;101982.66;5111251;27;45480;-75
2023/09/14 09:52:43;;;;;;;;;28.67;28.67;;;;;23.11;96.63;101950.13;5111644;27;45430;-75
2023/09/14 09:55:17;;;;;;;;;30.67;28.00;;;;;23.42;97.79;101976.38;5110220;27;45322;-75
2023/09/14 09:57:58;;;;;;;;;30.00;28.33;;;;;23.35;90.98;101975.97;5111820;27;45274;-75
2023/09/14 10:00:31;;;;;;;;;28.00;26.33;;;;;23.29;88.06;101967.53;5105253;27;45921;-76
2023/09/14 10:02:57;;;;;;;;;24.33;22.33;;;;;23.31;88.68;101963.72;5101618;27;45381;-75
2023/09/14 10:05:35;;;;;;;;;31.33;29.33;;;;;23.44;90.89;101962.72;5115907;27;45380;-75
2023/09/14 10:08:02;;;;;;;;;30.67;23.00;;;;;23.32;83.52;101956.47;5114069;27;45398;-76
2023/09/14 10:10:29;;;;;;;;;26.67;25.00;;;;;23.31;82.41;101966.41;5108010;27;47648;-75
2023/09/14 10:12:55;;;;;;;;;25.00;21.67;;;;;23.22;88.47;101964.47;5117772;27;45491;-75
2023/09/14 10:15:25;;;;;;;;;26.00;24.00;;;;;23.11;87.76;101960.91;5112396;27;45414;-75
2023/09/14 10:17:54;;;;;;;;;30.33;26.00;;;;;23.09;90.00;101969.16;5101264;27;45362;-75
2023/09/14 10:20:20;;;;;;;;;22.67;17.67;;;;;23.04;89.88;101954.28;5107637;27;45489;-75
2023/09/14 10:22:46;;;;;;;;;21.00;18.67;;;;;23.07;83.06;101952.19;5120528;27;45355;-75
2023/09/14 10:25:12;;;;;;;;;20.33;18.00;;;;;23.06;85.60;101952.34;5119864;27;45412;-75
2023/09/14 10:27:39;;;;;;;;;21.33;18.00;;;;;23.08;78.07;101953.06;5121915;27;45465;-76
2023/09/14 10:30:08;;;;;;;;;18.33;18.33;;;;;23.00;78.67;101945.63;5101949;27;45361;-75
2023/09/14 10:32:38;;;;;;;;;20.33;18.67;;;;;22.97;84.77;101943.13;5101072;27;45217;-75
2023/09/14 10:35:04;;;;;;;;;9.67;9.33;;;;;22.92;80.38;101945.38;5119264;27;45385;-75
2023/09/14 10:37:30;;;;;;;;;15.33;14.00;;;;;22.96;83.84;101938.75;5121429;27;45539;-74
2023/09/14 10:39:56;;;;;;;;;16.00;15.00;;;;;22.91;86.36;101919.34;5115155;27;46269;-74
2023/09/14 10:42:21;;;;;;;;;11.33;7.00;;;;;23.15;69.57;101925.47;5099950;27;45435;-74
2023/09/14 10:44:47;;;;;;;;;14.00;12.33;;;;;23.19;72.67;101907.16;5103659;27;45262;-74
2023/09/14 10:47:15;;;;;;;;;18.67;18.67;;;;;23.40;76.87;101932.41;5112448;27;45231;-74
2023/09/14 10:49:42;;;;;;;;;18.67;18.33;;;;;23.36;80.00;101912.88;5101641;27;45519;-73
2023/09/14 10:52:08;;;;;;;;;12.00;12.00;;;;;23.38;77.87;101912.75;5100171;27;45453;-74
2023/09/14 10:54:35;;;;;;;;;11.67;11.67;;;;;23.43;74.68;101924.03;5101304;27;45366;-74
2023/09/14 10:57:10;;;;;;;;;7.33;7.33;;;;;23.31;78.29;101901.59;5114208;27;45583;-74
2023/09/14 10:59:53;;;;;;;;;13.00;10.00;;;;;23.33;71.94;101917.66;5121002;27;46234;-74